Time;durP1;ratioP1;P1;durP2;ratioP2;P2;SDS_P1;SDS_P2;PMS_P1;PMS_P2;Temp;Humidity;BMP_temperature;BMP_pressure;BME280_temperature;BME280_humidity;BME280_pressure;Samples;Min_cycle;Max_cycle;Signal;HPM_P1;HPM_P2
2023/05/17 00:02:09;;;;;;;14.80;13.20;;;;;;;11.76;100.00;96102.42;109155;1272;22517;-80
2023/05/17 00:04:40;;;;;;;13.90;11.70;;;;;;;11.78;100.00;96107.98;109183;1272;22567;-80
2023/05/17 00:07:11;;;;;;;12.40;11.00;;;;;;;11.80;100.00;96120.55;109197;1272;22512;-80
2023/05/17 00:09:41;;;;;;;11.80;10.30;;;;;;;11.79;100.00;96123.33;109172;1269;24333;-80
2023/05/17 00:12:12;;;;;;;13.60;11.80;;;;;;;11.80;100.00;96132.83;109173;1272;22560;-79
2023/05/17 00:14:43;;;;;;;14.80;12.90;;;;;;;11.79;100.00;96127.04;109160;1272;25414;-80
2023/05/17 00:17:14;;;;;;;14.00;12.50;;;;;;;11.82;100.00;96117.91;109187;1266;25332;-80
2023/05/17 00:19:45;;;;;;;16.00;11.60;;;;;;;11.83;100.00;96112.84;109192;1269;25022;-80
2023/05/17 00:22:16;;;;;;;13.40;11.80;;;;;;;11.83;100.00;96116.03;109113;1272;22484;-79
2023/05/17 00:24:47;;;;;;;13.10;11.70;;;;;;;11.81;100.00;96112.63;109166;1272;22534;-79
2023/05/17 00:27:18;;;;;;;12.50;11.20;;;;;;;11.81;100.00;96103.37;109154;1272;22554;-80
2023/05/17 00:29:49;;;;;;;13.10;11.70;;;;;;;11.83;100.00;96107.81;109177;1272;22515;-80
2023/05/17 00:32:20;;;;;;;12.50;10.90;;;;;;;11.86;100.00;96126.00;109180;1269;22525;-80
2023/05/17 00:34:50;;;;;;;13.00;11.50;;;;;;;11.91;100.00;96131.69;109181;1272;23891;-80
2023/05/17 00:37:21;;;;;;;11.50;10.10;;;;;;;11.95;100.00;96123.48;109197;1272;25549;-80
2023/05/17 00:39:52;;;;;;;10.80;9.60;;;;;;;12.00;100.00;96122.29;109149;1272;22575;-80
2023/05/17 00:42:23;;;;;;;9.80;8.80;;;;;;;12.01;100.00;96119.91;109163;1272;22538;-80
2023/05/17 00:44:55;;;;;;;9.30;8.40;;;;;;;12.01;100.00;96116.56;109124;1269;22538;-80
2023/05/17 00:47:25;;;;;;;8.50;6.90;;;;;;;12.03;100.00;96126.99;109187;1272;22529;-80
2023/05/17 00:49:56;;;;;;;8.20;6.50;;;;;;;12.01;100.00;96131.64;109204;1266;22483;-80
2023/05/17 00:52:28;;;;;;;7.40;6.60;;;;;;;12.01;100.00;96132.81;109188;1272;22507;-79
2023/05/17 00:54:59;;;;;;;8.30;7.00;;;;;;;12.04;100.00;96133.66;109173;1272;23100;-80
2023/05/17 00:57:30;;;;;;;7.70;6.90;;;;;;;12.06;100.00;96128.40;109043;1272;146208;-80
2023/05/17 01:00:02;;;;;;;8.70;7.70;;;;;;;12.08;100.00;96129.69;109193;1272;22577;-80
2023/05/17 01:02:33;;;;;;;12.00;10.40;;;;;;;12.08;100.00;96129.56;109188;1266;22565;-80
2023/05/17 01:05:04;;;;;;;8.20;7.30;;;;;;;12.10;100.00;96126.45;109172;1273;24193;-80
2023/05/17 01:07:35;;;;;;;11.90;9.80;;;;;;;12.11;100.00;96125.01;109177;1273;24398;-80
2023/05/17 01:10:08;;;;;;;12.70;11.40;;;;;;;12.12;100.00;96128.59;109164;1269;22558;-80
2023/05/17 01:12:56;;;;;;;15.00;13.20;;;;;;;12.15;100.00;96131.77;109185;1271;25288;-80
2023/05/17 01:15:32;;;;;;;14.50;12.40;;;;;;;12.18;100.00;96134.03;109165;1273;22687;-80
2023/05/17 01:18:11;;;;;;;15.30;13.60;;;;;;;12.21;100.00;96138.69;109221;1272;22578;-80
2023/05/17 01:20:45;;;;;;;12.40;11.10;;;;;;;12.24;100.00;96145.34;109150;1273;25257;-80
2023/05/17 01:23:29;;;;;;;9.40;8.40;;;;;;;12.16;100.00;96139.99;109149;1272;23072;-80
2023/05/17 01:26:07;;;;;;;9.80;8.10;;;;;;;12.12;100.00;96137.90;109194;1273;22514;-80
2023/05/17 01:28:41;;;;;;;9.60;8.60;;;;;;;12.14;100.00;96140.04;109161;1273;23743;-80
2023/05/17 01:31:13;;;;;;;8.20;7.30;;;;;;;12.18;100.00;96139.73;109224;1272;22571;-80
2023/05/17 01:33:44;;;;;;;8.00;7.20;;;;;;;12.19;100.00;96143.73;109165;1272;22543;-80
2023/05/17 01:36:15;;;;;;;11.60;7.90;;;;;;;12.19;100.00;96152.67;109181;1272;22535;-80
2023/05/17 01:38:45;;;;;;;10.50;8.60;;;;;;;12.13;100.00;96169.55;109183;1272;22644;-80
2023/05/17 01:41:24;;;;;;;10.60;8.50;;;;;;;12.08;100.00;96180.16;109163;1269;22596;-80
2023/05/17 01:44:02;;;;;;;5.50;5.00;;;;;;;12.05;100.00;96181.67;109161;1272;22665;-80
2023/05/17 01:46:39;;;;;;;4.90;4.50;;;;;;;11.99;100.00;96183.98;109193;1272;24481;-80
2023/05/17 01:49:23;;;;;;;5.00;4.50;;;;;;;11.98;100.00;96182.24;109142;1272;25420;-80
2023/05/17 01:52:03;;;;;;;5.30;4.70;;;;;;;11.99;100.00;96180.41;109178;1269;23096;-81
2023/05/17 01:54:47;;;;;;;4.30;4.00;;;;;;;12.03;100.00;96171.44;109190;1266;22583;-80
2023/05/17 01:57:25;;;;;;;5.10;4.60;;;;;;;12.08;100.00;96159.98;109162;1272;22540;-80
2023/05/17 01:59:59;;;;;;;5.70;5.00;;;;;;;12.10;100.00;96151.09;109129;1266;25272;-80
2023/05/17 02:02:30;;;;;;;5.70;4.80;;;;;;;12.12;100.00;96154.84;109166;1269;23805;-80
2023/05/17 02:05:01;;;;;;;5.50;5.00;;;;;;;12.13;100.00;96158.48;109194;1272;22668;-80
2023/05/17 02:07:32;;;;;;;5.70;5.20;;;;;;;12.13;100.00;96161.17;109198;1272;25438;-80
2023/05/17 02:10:04;;;;;;;5.40;4.90;;;;;;;12.13;100.00;96157.23;109176;1273;22525;-80
2023/05/17 02:12:35;;;;;;;6.00;5.40;;;;;;;12.15;100.00;96154.98;109151;1273;24248;-80
2023/05/17 02:15:10;;;;;;;7.10;6.40;;;;;;;12.17;100.00;96154.63;109200;1273;23916;-80
2023/05/17 02:17:41;;;;;;;7.40;6.20;;;;;;;12.16;100.00;96157.57;109144;1269;22538;-80
2023/05/17 02:20:12;;;;;;;5.70;5.10;;;;;;;12.15;100.00;96154.46;109145;1266;22627;-80
2023/05/17 02:22:43;;;;;;;4.80;4.10;;;;;;;12.13;100.00;96155.89;109149;1272;24774;-80
2023/05/17 02:25:14;;;;;;;2.60;2.30;;;;;;;12.11;100.00;96158.11;109214;1272;25221;-80
2023/05/17 02:27:46;;;;;;;2.60;2.30;;;;;;;12.06;100.00;96156.30;109194;1272;22583;-80
2023/05/17 02:30:17;;;;;;;2.80;2.50;;;;;;;12.00;100.00;96152.81;109202;1272;22551;-80
2023/05/17 02:32:48;;;;;;;2.20;2.00;;;;;;;11.94;100.00;96155.33;109144;1272;22454;-80
2023/05/17 02:35:19;;;;;;;2.50;2.30;;;;;;;11.91;100.00;96153.53;109186;1269;23700;-80
2023/05/17 02:37:50;;;;;;;2.20;2.00;;;;;;;11.86;100.00;96150.88;109204;1272;22522;-80
2023/05/17 02:40:21;;;;;;;2.80;2.60;;;;;;;11.82;100.00;96146.98;109187;1269;22483;-80
2023/05/17 02:42:52;;;;;;;2.50;1.90;;;;;;;11.79;100.00;96138.34;109140;1272;25233;-80
2023/05/17 02:45:23;;;;;;;1.90;1.80;;;;;;;11.74;100.00;96135.56;109193;1272;23799;-80
2023/05/17 02:47:54;;;;;;;2.60;1.80;;;;;;;11.75;100.00;96137.41;109148;1266;25229;-80
2023/05/17 02:50:25;;;;;;;1.90;1.70;;;;;;;11.78;100.00;96148.08;109188;1269;22526;-80
2023/05/17 02:52:56;;;;;;;4.20;1.70;;;;;;;11.80;100.00;96148.02;109157;1272;22725;-80
2023/05/17 02:55:27;;;;;;;1.70;1.60;;;;;;;11.79;100.00;96146.01;109184;1272;22728;-80
2023/05/17 02:57:57;;;;;;;1.80;1.70;;;;;;;11.78;100.00;96142.39;109225;1266;22909;-80
2023/05/17 03:00:28;;;;;;;1.80;1.70;;;;;;;11.80;100.00;96146.73;109175;1269;22901;-80
2023/05/17 03:03:00;;;;;;;1.80;1.70;;;;;;;11.74;100.00;96158.05;109175;1266;22573;-80
2023/05/17 03:05:31;;;;;;;2.10;2.00;;;;;;;11.72;100.00;96157.81;109190;1272;22515;-80
2023/05/17 03:08:02;;;;;;;2.40;2.20;;;;;;;11.68;100.00;96166.45;109170;1272;25454;-80
2023/05/17 03:10:33;;;;;;;2.10;1.90;;;;;;;11.66;100.00;96167.23;109150;1269;22513;-80
2023/05/17 03:13:03;;;;;;;2.20;2.00;;;;;;;11.66;100.00;96164.88;109144;1261;22473;-80
2023/05/17 03:15:34;;;;;;;2.40;2.20;;;;;;;11.68;100.00;96172.50;109205;1272;22611;-80
2023/05/17 03:18:05;;;;;;;2.60;1.90;;;;;;;11.69;100.00;96174.82;109205;1272;22527;-80
2023/05/17 03:20:36;;;;;;;2.60;1.90;;;;;;;11.72;100.00;96177.48;109159;1272;24243;-80
2023/05/17 03:23:07;;;;;;;2.50;2.00;;;;;;;11.76;100.00;96180.41;109168;1269;23282;-80
2023/05/17 03:25:38;;;;;;;1.90;1.80;;;;;;;11.76;100.00;96190.19;109144;1272;22525;-80
2023/05/17 03:28:19;;;;;;;1.60;1.50;;;;;;;11.76;100.00;96193.84;109135;1272;22552;-80
2023/05/17 03:30:52;;;;;;;2.00;1.90;;;;;;;11.73;100.00;96196.78;109123;1273;23286;-80
2023/05/17 03:33:23;;;;;;;2.00;1.90;;;;;;;11.68;100.00;96198.99;109137;1272;24324;-80
2023/05/17 03:35:53;;;;;;;3.50;2.40;;;;;;;11.65;100.00;96196.86;109137;1272;22553;-80
2023/05/17 03:38:24;;;;;;;2.70;2.50;;;;;;;11.67;100.00;96200.77;109162;1269;22525;-80
2023/05/17 03:40:56;;;;;;;3.30;2.40;;;;;;;11.71;100.00;96209.30;109157;1273;22558;-80
2023/05/17 03:43:27;;;;;;;2.40;2.20;;;;;;;11.71;100.00;96213.45;109141;1266;25750;-80
2023/05/17 03:45:58;;;;;;;2.70;2.50;;;;;;;11.72;100.00;96211.36;109135;1272;25206;-80
2023/05/17 03:48:29;;;;;;;2.70;2.50;;;;;;;11.74;100.00;96215.19;109182;1269;22468;-80
2023/05/17 03:51:01;;;;;;;2.30;2.20;;;;;;;11.77;100.00;96216.98;109116;1272;22589;-80
2023/05/17 03:53:32;;;;;;;2.00;1.80;;;;;;;11.78;100.00;96214.85;109149;1270;22512;-80
2023/05/17 03:56:03;;;;;;;2.00;1.90;;;;;;;11.79;100.00;96215.05;109174;1258;22682;-80
2023/05/17 03:58:35;;;;;;;2.30;1.80;;;;;;;11.79;100.00;96214.67;109140;1272;24241;-80
2023/05/17 04:01:06;;;;;;;1.90;1.80;;;;;;;11.77;100.00;96214.59;109176;1269;25429;-80
2023/05/17 04:03:38;;;;;;;1.80;1.60;;;;;;;11.78;100.00;96219.56;109153;1272;22828;-80
2023/05/17 04:06:10;;;;;;;1.70;1.60;;;;;;;11.80;100.00;96229.38;109195;1272;22575;-80
2023/05/17 04:08:41;;;;;;;1.80;1.60;;;;;;;11.82;100.00;96239.13;109186;1269;24199;-80
2023/05/17 04:11:12;;;;;;;1.70;1.60;;;;;;;11.79;100.00;96241.45;109175;1269;22522;-80
2023/05/17 04:13:44;;;;;;;2.10;1.90;;;;;;;11.74;100.00;96247.16;109132;1272;24246;-80
2023/05/17 04:16:15;;;;;;;2.00;1.70;;;;;;;11.72;100.00;96254.95;109208;1267;22469;-80
2023/05/17 04:18:46;;;;;;;2.20;2.00;;;;;;;11.73;100.00;96255.10;109146;1272;22540;-80
2023/05/17 04:21:17;;;;;;;2.10;2.00;;;;;;;11.74;100.00;96239.09;109154;1266;22617;-80
2023/05/17 04:23:48;;;;;;;2.10;2.00;;;;;;;11.78;100.00;96230.36;109125;1252;22553;-80
2023/05/17 04:26:20;;;;;;;2.20;2.00;;;;;;;11.82;100.00;96238.70;109167;1257;22511;-80
2023/05/17 04:28:51;;;;;;;2.60;2.20;;;;;;;11.82;100.00;96252.15;109182;1272;25405;-80
2023/05/17 04:31:22;;;;;;;1.80;1.70;;;;;;;11.81;100.00;96258.41;109187;1266;22525;-80
2023/05/17 04:33:53;;;;;;;1.90;1.70;;;;;;;11.81;100.00;96264.74;109171;1272;22473;-80
2023/05/17 04:36:24;;;;;;;2.50;2.30;;;;;;;11.81;100.00;96261.19;109120;1272;22515;-80
2023/05/17 04:38:56;;;;;;;2.60;2.40;;;;;;;11.82;100.00;96256.71;109203;1272;25533;-80
2023/05/17 04:41:27;;;;;;;1.60;1.40;;;;;;;11.85;100.00;96253.70;109163;1272;23215;-80
2023/05/17 04:43:58;;;;;;;1.30;1.20;;;;;;;11.84;100.00;96260.72;109166;1270;22690;-80
2023/05/17 04:46:29;;;;;;;1.50;1.10;;;;;;;11.83;100.00;96262.05;109119;1270;24043;-80
2023/05/17 04:49:01;;;;;;;3.10;1.60;;;;;;;11.75;100.00;96256.98;109119;1272;22486;-80
2023/05/17 04:51:33;;;;;;;1.40;1.30;;;;;;;11.67;100.00;96253.27;109250;1272;22561;-80
2023/05/17 04:54:07;;;;;;;0.70;0.70;;;;;;;11.67;100.00;96255.08;109175;1272;24226;-80
2023/05/17 04:56:40;;;;;;;1.90;1.20;;;;;;;11.68;100.00;96264.22;109176;1269;22473;-80
2023/05/17 04:59:11;;;;;;;1.70;1.60;;;;;;;11.57;100.00;96274.45;109207;1272;22586;-80
2023/05/17 05:01:43;;;;;;;1.80;1.70;;;;;;;11.52;100.00;96272.29;109148;1263;22646;-80
2023/05/17 05:04:14;;;;;;;1.40;1.30;;;;;;;11.46;100.00;96276.21;109121;1272;22545;-80
2023/05/17 05:06:45;;;;;;;1.30;1.20;;;;;;;11.42;100.00;96280.50;109162;1272;22575;-80
2023/05/17 05:09:16;;;;;;;1.00;1.00;;;;;;;11.35;100.00;96282.67;109158;1270;23185;-80
2023/05/17 05:11:47;;;;;;;1.00;1.00;;;;;;;11.27;100.00;96282.85;109167;1272;23294;-80
2023/05/17 05:14:18;;;;;;;1.60;1.10;;;;;;;11.27;100.00;96285.82;109138;1267;22583;-80
2023/05/17 05:16:49;;;;;;;1.10;1.00;;;;;;;11.33;100.00;96285.95;109164;1267;22663;-80
2023/05/17 05:19:20;;;;;;;1.30;1.00;;;;;;;11.37;100.00;96287.69;109180;1272;25395;-80
2023/05/17 05:21:51;;;;;;;1.20;1.00;;;;;;;11.36;100.00;96288.39;109152;1272;25914;-80
2023/05/17 05:24:22;;;;;;;1.30;1.10;;;;;;;11.34;100.00;96287.46;109111;1251;22525;-80
2023/05/17 05:26:53;;;;;;;0.90;0.90;;;;;;;11.33;100.00;96292.05;109081;1273;24231;-80
2023/05/17 05:29:24;;;;;;;1.10;1.10;;;;;;;11.35;100.00;96297.27;109118;1271;25422;-80
2023/05/17 05:31:55;;;;;;;1.60;1.40;;;;;;;11.33;100.00;96300.44;109108;1270;22553;-80
2023/05/17 05:34:28;;;;;;;0.80;0.80;;;;;;;11.27;100.00;96300.59;109209;1272;22614;-80
2023/05/17 05:36:59;;;;;;;1.20;1.00;;;;;;;11.24;100.00;96301.89;109164;1270;24180;-80
2023/05/17 05:39:30;;;;;;;1.20;1.10;;;;;;;11.22;100.00;96303.09;109177;1273;22687;-80
2023/05/17 05:42:02;;;;;;;1.10;1.00;;;;;;;11.21;100.00;96302.32;109152;1272;25277;-80
2023/05/17 05:44:33;;;;;;;0.80;0.70;;;;;;;11.16;100.00;96305.53;109189;1273;22730;-80
2023/05/17 05:47:04;;;;;;;1.20;1.10;;;;;;;11.14;100.00;96304.08;109166;1267;22605;-80
2023/05/17 05:49:35;;;;;;;1.30;1.20;;;;;;;11.13;100.00;96312.27;109173;1269;22523;-80
2023/05/17 05:52:07;;;;;;;2.50;1.40;;;;;;;11.15;100.00;96317.85;109111;1273;22512;-80
2023/05/17 05:54:38;;;;;;;1.60;1.50;;;;;;;11.18;100.00;96319.39;109175;1272;25284;-80
2023/05/17 05:57:09;;;;;;;1.40;1.30;;;;;;;11.19;100.00;96319.16;109191;1272;22552;-80
2023/05/17 05:59:40;;;;;;;1.00;1.00;;;;;;;11.16;100.00;96327.81;109218;1272;22571;-80
2023/05/17 06:02:11;;;;;;;1.00;0.90;;;;;;;11.13;100.00;96334.13;109142;1273;23762;-80
2023/05/17 06:04:42;;;;;;;1.40;1.30;;;;;;;11.11;100.00;96336.79;109181;1272;25284;-80
2023/05/17 06:07:13;;;;;;;1.50;1.30;;;;;;;11.07;100.00;96346.14;109154;1269;22541;-80
2023/05/17 06:09:44;;;;;;;0.90;0.90;;;;;;;11.06;100.00;96349.92;109172;1273;22515;-80
2023/05/17 06:12:15;;;;;;;1.40;1.30;;;;;;;11.06;100.00;96351.56;109138;1272;22756;-80
2023/05/17 06:14:46;;;;;;;1.30;1.20;;;;;;;11.04;100.00;96352.17;109213;1270;22818;-80
2023/05/17 06:17:17;;;;;;;1.40;1.30;;;;;;;11.03;100.00;96356.34;109158;1272;23102;-80
2023/05/17 06:19:48;;;;;;;1.10;1.10;;;;;;;11.05;100.00;96358.38;109190;1266;22480;-80
2023/05/17 06:22:19;;;;;;;1.40;1.30;;;;;;;11.05;100.00;96363.58;109158;1273;25408;-80
2023/05/17 06:24:50;;;;;;;1.20;1.10;;;;;;;11.05;100.00;96361.71;109182;1251;22520;-80
2023/05/17 06:27:21;;;;;;;1.00;0.90;;;;;;;11.04;100.00;96367.09;109123;1273;22541;-80
2023/05/17 06:29:52;;;;;;;0.70;0.70;;;;;;;11.00;100.00;96367.36;109197;1272;22575;-80
2023/05/17 06:32:23;;;;;;;0.90;0.90;;;;;;;11.01;100.00;96369.90;109127;1273;22568;-80
2023/05/17 06:34:55;;;;;;;0.80;0.80;;;;;;;11.06;100.00;96367.74;109192;1267;24231;-80
2023/05/17 06:37:26;;;;;;;0.70;0.70;;;;;;;11.07;100.00;96361.05;109204;1272;24196;-80
2023/05/17 06:40:05;;;;;;;0.60;0.50;;;;;;;11.08;100.00;96359.17;109143;1267;24254;-80
2023/05/17 06:42:36;;;;;;;0.30;0.30;;;;;;;11.10;100.00;96359.66;109136;1267;25326;-80
2023/05/17 06:45:08;;;;;;;0.50;0.50;;;;;;;11.12;100.00;96364.59;109165;1272;22514;-80
2023/05/17 06:47:40;;;;;;;0.40;0.40;;;;;;;11.16;100.00;96368.77;109147;1269;24173;-80
2023/05/17 06:50:12;;;;;;;0.50;0.30;;;;;;;11.18;100.00;96368.21;109157;1273;22594;-80
2023/05/17 06:52:43;;;;;;;0.30;0.30;;;;;;;11.20;100.00;96368.98;109155;1273;22584;-80
2023/05/17 06:55:14;;;;;;;1.00;0.50;;;;;;;11.24;100.00;96365.95;109190;1267;22476;-80
2023/05/17 06:57:45;;;;;;;1.00;0.40;;;;;;;11.25;100.00;96365.34;109138;1273;22531;-80
2023/05/17 07:00:18;;;;;;;0.60;0.60;;;;;;;11.26;100.00;96369.42;109184;1267;22984;-80
2023/05/17 07:02:49;;;;;;;0.50;0.50;;;;;;;11.28;100.00;96378.68;109129;1273;22512;-80
2023/05/17 07:05:20;;;;;;;0.70;0.70;;;;;;;11.27;100.00;96385.02;109210;1272;24100;-80
2023/05/17 07:07:51;;;;;;;0.40;0.40;;;;;;;11.22;100.00;96386.83;109107;1268;22552;-80
2023/05/17 07:10:22;;;;;;;0.40;0.40;;;;;;;11.19;100.00;96392.88;109164;1272;22722;-80
2023/05/17 07:12:54;;;;;;;0.60;0.60;;;;;;;11.21;100.00;96395.50;109135;1270;22548;-80
2023/05/17 07:15:25;;;;;;;0.40;0.40;;;;;;;11.20;100.00;96400.08;109191;1272;22547;-80
2023/05/17 07:17:58;;;;;;;0.60;0.60;;;;;;;11.19;100.00;96398.18;109149;1267;22524;-80
2023/05/17 07:20:29;;;;;;;1.00;0.90;;;;;;;11.23;100.00;96399.27;109149;1272;25397;-80
2023/05/17 07:23:00;;;;;;;0.50;0.50;;;;;;;11.27;100.00;96395.00;109125;1272;22783;-80
2023/05/17 07:25:31;;;;;;;0.40;0.40;;;;;;;11.29;100.00;96402.08;109150;1273;22485;-80
2023/05/17 07:28:02;;;;;;;0.50;0.40;;;;;;;11.29;100.00;96409.25;109153;1267;23919;-80
2023/05/17 07:30:33;;;;;;;0.50;0.50;;;;;;;11.25;100.00;96410.61;109188;1272;22511;-80
2023/05/17 07:33:05;;;;;;;1.00;0.70;;;;;;;11.24;100.00;96411.80;109134;1272;22582;-80
2023/05/17 07:35:36;;;;;;;0.60;0.50;;;;;;;11.25;100.00;96413.38;109117;1269;25447;-80
2023/05/17 07:38:07;;;;;;;0.30;0.30;;;;;;;11.25;100.00;96419.31;109171;1272;24280;-79
2023/05/17 07:40:38;;;;;;;0.70;0.50;;;;;;;11.29;100.00;96419.06;109133;1270;22524;-80
2023/05/17 07:43:09;;;;;;;1.40;0.80;;;;;;;11.29;100.00;96419.02;109165;1272;24516;-79
2023/05/17 07:45:40;;;;;;;1.00;0.70;;;;;;;11.30;100.00;96417.73;109163;1272;23218;-79
2023/05/17 07:48:11;;;;;;;1.50;0.50;;;;;;;11.35;100.00;96420.27;109107;1273;22603;-80
2023/05/17 07:50:43;;;;;;;0.50;0.40;;;;;;;11.36;100.00;96423.00;109171;1266;22511;-80
2023/05/17 07:53:14;;;;;;;0.30;0.30;;;;;;;11.36;100.00;96426.55;109134;1272;22460;-79
2023/05/17 07:55:45;;;;;;;0.60;0.40;;;;;;;11.35;100.00;96431.66;109138;1272;23932;-79
2023/05/17 07:58:16;;;;;;;0.90;0.40;;;;;;;11.35;100.00;96432.41;109147;1269;22532;-80
2023/05/17 08:00:48;;;;;;;0.50;0.40;;;;;;;11.39;100.00;96432.14;109136;1273;24362;-80
2023/05/17 08:03:20;;;;;;;0.80;0.80;;;;;;;11.42;100.00;96434.45;109110;1273;22501;-80
2023/05/17 08:05:51;;;;;;;0.90;0.60;;;;;;;11.38;100.00;96440.05;109160;1267;22508;-80
2023/05/17 08:08:22;;;;;;;0.40;0.20;;;;;;;11.41;100.00;96439.82;109169;1272;24209;-80
2023/05/17 08:10:53;;;;;;;0.40;0.30;;;;;;;11.46;100.00;96436.38;109127;1272;22528;-80
2023/05/17 08:13:24;;;;;;;0.30;0.30;;;;;;;11.55;100.00;96437.37;109139;1267;25431;-80
2023/05/17 08:15:58;;;;;;;1.30;0.50;;;;;;;11.69;100.00;96435.77;109173;1251;22666;-80
2023/05/17 08:18:29;;;;;;;0.20;0.20;;;;;;;11.79;100.00;96435.27;109174;1272;24239;-80
2023/05/17 08:21:00;;;;;;;0.40;0.30;;;;;;;11.79;100.00;96439.67;109154;1266;23047;-80
2023/05/17 08:23:31;;;;;;;0.40;0.40;;;;;;;11.81;100.00;96449.48;109163;1272;22569;-80
2023/05/17 08:26:03;;;;;;;1.30;0.40;;;;;;;11.80;100.00;96448.27;109175;1266;23971;-80
2023/05/17 08:28:33;;;;;;;0.50;0.30;;;;;;;11.77;100.00;96451.21;109144;1269;25382;-80
2023/05/17 08:31:06;;;;;;;0.30;0.20;;;;;;;11.80;100.00;96453.12;109166;1272;22533;-80
2023/05/17 08:33:37;;;;;;;0.90;0.40;;;;;;;11.82;100.00;96451.08;109158;1272;24637;-80
2023/05/17 08:36:10;;;;;;;0.90;0.30;;;;;;;11.84;100.00;96456.15;109208;1267;23877;-80
2023/05/17 08:38:41;;;;;;;0.10;0.10;;;;;;;11.85;100.00;96460.98;109150;1266;22539;-80
2023/05/17 08:41:13;;;;;;;0.40;0.40;;;;;;;11.85;100.00;96464.09;109145;1272;23802;-80
2023/05/17 08:43:44;;;;;;;0.20;0.20;;;;;;;11.83;100.00;96464.06;109179;1272;22742;-80
2023/05/17 08:46:17;;;;;;;0.40;0.20;;;;;;;11.75;100.00;96470.42;109153;1266;22546;-80
2023/05/17 08:48:51;;;;;;;0.20;0.20;;;;;;;11.67;100.00;96472.46;109193;1272;24388;-80
2023/05/17 08:51:23;;;;;;;0.30;0.20;;;;;;;11.60;100.00;96473.46;109191;1267;22515;-80
2023/05/17 08:53:54;;;;;;;0.50;0.40;;;;;;;11.57;100.00;96473.78;109119;1272;24289;-80
2023/05/17 08:56:30;;;;;;;2.80;0.60;;;;;;;11.52;100.00;96473.99;109164;1273;22517;-80
2023/05/17 08:59:01;;;;;;;0.50;0.40;;;;;;;11.47;100.00;96479.38;109169;1266;23987;-80
2023/05/17 09:01:32;;;;;;;1.10;0.60;;;;;;;11.51;100.00;96487.23;109134;1266;23939;-80
2023/05/17 09:04:04;;;;;;;0.50;0.50;;;;;;;11.61;100.00;96488.64;109133;1272;22525;-81
2023/05/17 09:06:36;;;;;;;0.30;0.30;;;;;;;11.67;100.00;96494.38;109167;1272;22469;-80
2023/05/17 09:09:07;;;;;;;3.00;1.80;;;;;;;11.74;100.00;96496.23;109168;1273;22573;-80
2023/05/17 09:11:38;;;;;;;0.50;0.50;;;;;;;11.76;100.00;96494.85;109148;1261;22526;-80
2023/05/17 09:14:09;;;;;;;0.80;0.50;;;;;;;11.83;100.00;96494.94;109169;1272;22610;-80
2023/05/17 09:16:42;;;;;;;0.50;0.30;;;;;;;11.91;100.00;96497.73;109140;1267;23728;-80
2023/05/17 09:19:17;;;;;;;0.30;0.30;;;;;;;11.92;100.00;96496.24;109178;1272;22583;-80
2023/05/17 09:21:48;;;;;;;5.20;4.10;;;;;;;11.91;100.00;96502.15;109207;1267;22745;-80
2023/05/17 09:24:29;;;;;;;1.70;1.60;;;;;;;11.83;100.00;96499.45;109128;1267;23819;-80
2023/05/17 09:27:04;;;;;;;2.10;2.00;;;;;;;11.71;100.00;96507.31;109120;1251;22538;-80
2023/05/17 09:29:39;;;;;;;0.90;0.90;;;;;;;11.71;100.00;96507.52;109179;1272;23853;-80
2023/05/17 09:32:15;;;;;;;0.90;0.60;;;;;;;11.74;100.00;96510.39;109149;1272;22742;-80
2023/05/17 09:34:48;;;;;;;0.70;0.40;;;;;;;11.82;100.00;96514.13;109190;1266;25437;-80
2023/05/17 09:37:19;;;;;;;0.40;0.30;;;;;;;11.84;100.00;96515.80;109176;1266;23821;-80
2023/05/17 09:39:50;;;;;;;1.10;0.40;;;;;;;11.84;100.00;96518.30;109152;1272;23270;-81
2023/05/17 09:42:27;;;;;;;0.70;0.40;;;;;;;11.90;100.00;96528.30;109095;1272;23294;-80
2023/05/17 09:44:58;;;;;;;0.20;0.20;;;;;;;12.01;100.00;96530.01;109166;1272;23246;-80
2023/05/17 09:47:32;;;;;;;0.10;0.10;;;;;;;12.02;100.00;96532.07;109164;1272;23865;-81
2023/05/17 09:50:05;;;;;;;0.40;0.30;;;;;;;12.02;100.00;96534.36;109187;1266;22620;-80
2023/05/17 09:52:38;;;;;;;0.30;0.30;;;;;;;12.00;100.00;96543.64;109151;1272;23191;-80
2023/05/17 09:55:12;;;;;;;1.20;0.20;;;;;;;12.00;100.00;96548.52;109159;1266;22468;-81
2023/05/17 09:57:43;;;;;;;0.30;0.30;;;;;;;12.05;100.00;96551.94;109182;1272;23977;-81
2023/05/17 10:00:18;;;;;;;0.30;0.20;;;;;;;12.09;100.00;96555.38;109155;1267;22502;-81
2023/05/17 10:02:49;;;;;;;0.60;0.30;;;;;;;12.10;100.00;96557.48;109139;1272;22575;-81
2023/05/17 10:05:22;;;;;;;0.20;0.20;;;;;;;12.16;100.00;96555.13;109204;1270;22523;-80
2023/05/17 10:07:56;;;;;;;0.90;0.30;;;;;;;12.21;100.00;96550.15;109187;1266;22657;-80
2023/05/17 10:10:29;;;;;;;0.40;0.30;;;;;;;12.27;100.00;96548.31;109223;1272;22642;-80
2023/05/17 10:13:03;;;;;;;0.20;0.20;;;;;;;12.34;100.00;96542.29;109159;1272;23008;-80
2023/05/17 10:15:35;;;;;;;0.20;0.20;;;;;;;12.44;100.00;96543.90;109184;1272;22551;-80
2023/05/17 10:18:08;;;;;;;1.20;0.40;;;;;;;12.56;100.00;96539.18;109147;1272;22555;-80
2023/05/17 10:20:40;;;;;;;0.80;0.50;;;;;;;12.62;100.00;96535.77;109166;1272;22517;-80
2023/05/17 10:23:13;;;;;;;0.60;0.20;;;;;;;12.68;100.00;96536.95;109123;1266;22639;-80
2023/05/17 10:25:44;;;;;;;0.30;0.20;;;;;;;12.68;100.00;96538.70;109175;1272;22476;-81
2023/05/17 10:28:17;;;;;;;1.40;0.10;;;;;;;12.66;100.00;96543.03;109171;1266;22546;-80
2023/05/17 10:30:50;;;;;;;0.20;0.20;;;;;;;12.61;100.00;96542.02;109182;1272;22653;-80
2023/05/17 10:33:22;;;;;;;0.20;0.20;;;;;;;12.55;100.00;96546.06;109208;1265;22570;-80
2023/05/17 10:35:55;;;;;;;1.10;0.20;;;;;;;12.43;100.00;96545.55;109120;1265;23134;-81
2023/05/17 10:38:27;;;;;;;0.20;0.20;;;;;;;12.34;100.00;96548.84;109227;1272;22526;-80
2023/05/17 10:41:00;;;;;;;1.10;0.40;;;;;;;12.37;100.00;96549.63;109157;1272;23854;-80
2023/05/17 10:43:32;;;;;;;0.20;0.20;;;;;;;12.36;100.00;96562.11;109158;1272;24221;-80
2023/05/17 10:46:13;;;;;;;0.40;0.40;;;;;;;12.26;100.00;96564.02;109105;1272;23763;-81
2023/05/17 10:48:47;;;;;;;0.30;0.20;;;;;;;12.09;100.00;96563.04;109130;1272;24299;-81
2023/05/17 10:51:24;;;;;;;0.30;0.30;;;;;;;12.00;100.00;96571.59;109170;1266;22511;-81
2023/05/17 10:54:17;;;;;;;0.40;0.40;;;;;;;11.93;100.00;96576.92;109160;1272;25497;-80
2023/05/17 10:56:51;;;;;;;0.80;0.50;;;;;;;11.85;100.00;96576.25;109157;1272;22466;-80
2023/05/17 10:59:25;;;;;;;0.30;0.30;;;;;;;11.78;100.00;96575.03;109159;1269;24311;-80
2023/05/17 11:02:00;;;;;;;0.70;0.60;;;;;;;11.72;100.00;96570.81;109197;1266;22651;-80
2023/05/17 11:04:35;;;;;;;0.80;0.80;;;;;;;11.70;100.00;96572.86;109153;1272;23239;-80
2023/05/17 11:07:28;;;;;;;0.50;0.40;;;;;;;11.68;100.00;96569.00;109154;1272;22553;-80
2023/05/17 11:10:10;;;;;;;0.80;0.70;;;;;;;11.71;100.00;96574.34;109144;1272;22533;-81
2023/05/17 11:12:42;;;;;;;0.80;0.50;;;;;;;11.61;100.00;96577.76;109126;1272;22525;-80
2023/05/17 11:15:15;;;;;;;1.10;0.60;;;;;;;11.61;100.00;96581.95;109154;1272;22604;-80
2023/05/17 11:17:55;;;;;;;0.50;0.50;;;;;;;11.54;100.00;96582.83;109176;1266;23793;-80
2023/05/17 11:20:35;;;;;;;;;;;;;;;11.45;100.00;96596.48;109168;1272;22499;-80
2023/05/17 11:23:13;;;;;;;0.60;0.60;;;;;;;11.49;100.00;96590.65;109202;1266;22553;-80
2023/05/17 11:25:44;;;;;;;1.50;0.60;;;;;;;11.36;100.00;96598.96;109129;1272;22522;-80
2023/05/17 11:28:22;;;;;;;0.80;0.80;;;;;;;11.33;100.00;96604.30;109151;1272;22929;-80
2023/05/17 11:31:02;;;;;;;0.50;0.50;;;;;;;11.21;100.00;96605.98;109197;1250;22519;-80
2023/05/17 11:33:42;;;;;;;1.00;0.80;;;;;;;11.07;100.00;96604.00;109143;1272;24228;-80
2023/05/17 11:36:20;;;;;;;0.90;0.90;;;;;;;11.01;100.00;96608.64;109237;1266;22552;-80
2023/05/17 11:39:09;;;;;;;1.50;1.10;;;;;;;10.97;100.00;96608.65;109140;1272;22722;-80
2023/05/17 11:41:48;;;;;;;0.80;0.80;;;;;;;11.01;100.00;96604.08;109241;1266;22766;-80